Latest Weather Observations for Normanton

IDQ60801

Issued at 6:05 pm EST Thursday 23 October 2014 (issued every 30 minutes, with the page automatically refreshed every 10 minutes)

About weather observations | Map of weather stations | Latest weather observations for QLD | Other Formats
Station Details ID: 029063 Name: NORMANTON AIRPORT Lat: -17.69 Lon: 141.07 Height: 18.42 m
Data from the previous 72 hours. | See also: Recent months at Normanton
Date/Time
EST
Temp
°C
App
Temp
°C
Dew
Point
Rel
Hum
%
Delta-T
°C
Wind Press
QNH
hPa
Press
MSL
hPa
Rain
since 9 am
mm
Dir
 
Spd
km/h
Gust
km/h
Spd
kts
Gust
kts
23/06:00pm 34.7 31.3 6.1 17 15.6 SE 13 20 7 11 1011.3 1011.0 0.0
23/05:30pm 35.2 31.5 6.5 17 15.8 SE 15 26 8 14 1011.1 - 0.0
23/05:00pm 35.8 31.7 6.1 16 16.2 SE 17 28 9 15 1010.9 - 0.0
23/04:30pm 35.6 31.4 5.9 16 16.2 ESE 17 35 9 19 1010.8 - 0.0
23/04:00pm 35.2 30.4 5.6 16 16.0 SE 20 30 11 16 1011.1 - 0.0
23/03:30pm 35.5 30.0 5.8 16 16.1 SSE 24 35 13 19 1011.2 - 0.0
23/03:00pm 35.2 30.2 6.5 17 15.8 SSE 22 33 12 18 1011.5 1011.3 0.0
23/02:30pm 35.2 31.0 7.3 18 15.5 SSE 19 37 10 20 1011.9 - 0.0
23/02:00pm 34.3 29.7 6.6 18 15.2 SE 20 33 11 18 1012.4 - 0.0
23/01:30pm 35.1 31.2 8.8 20 14.9 E 19 30 10 16 1012.7 - 0.0
23/01:00pm 34.2 31.2 9.4 22 14.2 SE 15 28 8 15 1013.5 - 0.0
23/12:30pm 33.6 29.9 9.6 23 13.7 SE 19 30 10 16 1014.2 - 0.0
23/12:00pm 32.8 29.7 10.2 25 13.0 E 17 28 9 15 1014.7 1014.8 0.0
23/11:30am 31.7 28.3 10.4 27 12.2 E 19 26 10 14 1015.5 - 0.0
23/11:00am 30.9 28.3 10.8 29 11.6 ESE 15 26 8 14 1016.2 - 0.0
23/10:30am 30.5 28.0 11.0 30 11.2 E 15 24 8 13 1016.6 - 0.0
23/10:00am 29.5 26.7 11.5 33 10.4 ENE 17 28 9 15 1016.8 - 0.0
23/09:30am 28.8 25.8 11.8 35 9.8 ENE 19 28 10 15 1017.4 - 0.0
23/09:00am 27.8 24.6 11.8 37 9.2 E 20 32 11 17 1017.5 1017.4 0.0
23/08:30am 27.3 24.2 12.1 39 8.8 ENE 20 30 11 16 1017.6 - 0.0
23/08:00am 26.6 24.4 13.3 43 7.8 ENE 17 26 9 14 1017.3 - 0.0
23/07:30am 25.7 24.1 13.9 48 7.0 E 15 20 8 11 1017.2 - 0.0
23/07:00am 24.7 23.5 13.9 51 6.4 E 13 20 7 11 1016.8 - 0.0
23/06:30am 23.6 22.8 14.0 55 5.6 E 11 17 6 9 1016.5 - 0.0
23/06:00am 23.6 23.0 13.5 53 5.9 E 9 13 5 7 1015.9 1015.7 0.0
23/05:30am 23.9 23.3 13.4 51 6.1 E 9 13 5 7 1015.6 - 0.0
23/05:00am 24.6 23.2 13.5 50 6.5 E 13 19 7 10 1015.0 - 0.0
23/04:30am 25.0 23.9 13.2 48 6.9 E 11 17 6 9 1014.4 - 0.0
23/04:00am 24.9 24.0 13.8 50 6.5 ENE 11 17 6 9 1014.1 - 0.0
23/03:30am 24.7 24.0 14.2 52 6.2 E 11 15 6 8 1014.1 - 0.0
23/03:00am 24.9 24.5 15.2 54 5.8 ENE 11 19 6 10 1014.2 1014.0 0.0
23/02:30am 23.5 23.3 16.8 66 4.1 E 13 17 7 9 1014.2 - 0.0
23/02:00am 22.6 24.4 18.8 79 2.4 ESE 7 9 4 5 1014.3 - 0.0
23/01:30am 22.5 24.4 18.5 78 2.5 ENE 6 7 3 4 1014.5 - 0.0
23/01:00am 22.6 23.8 18.2 76 2.8 E 9 13 5 7 1014.8 - 0.0
23/12:30am 23.2 26.0 18.9 77 2.7 WSW 2 9 1 5 1014.8 - 0.0
23/12:00am 23.8 25.8 18.7 73 3.2 WSW 6 6 3 3 1014.8 1014.6 0.0
 
Date/Time
EST
Temp
°C
App
Temp
°C
Dew
Point
Rel
Hum
%
Delta-T
°C
Wind Press
QNH
hPa
Press
MSL
hPa
Rain
since 9 am
mm
Dir
 
Spd
km/h
Gust
km/h
Spd
kts
Gust
kts
22/11:30pm 24.2 27.0 18.8 72 3.4 W 2 7 1 4 1014.8 - 0.0
22/11:00pm 24.7 26.1 18.6 69 3.9 NW 9 11 5 6 1014.7 - 0.0
22/10:30pm 25.1 26.2 18.8 68 4.0 N 11 15 6 8 1014.7 - 0.0
22/10:00pm 25.3 26.8 18.0 64 4.6 N 7 9 4 5 1014.6 - 0.0
22/09:30pm 26.0 26.9 17.6 60 5.3 W 9 11 5 6 1014.2 - 0.0
22/09:00pm 26.7 27.3 16.9 55 6.1 WNW 9 13 5 7 1013.8 1013.6 0.0
22/08:30pm 27.2 27.3 16.5 52 6.6 WNW 11 13 6 7 1013.4 - 0.0
22/08:00pm 27.9 27.4 15.9 48 7.4 NW 13 15 7 8 1013.1 - 0.0
22/07:30pm 29.6 28.6 13.4 37 9.7 W 11 17 6 9 1012.8 - 0.0
22/07:00pm 32.7 29.9 5.3 18 14.6 SE 9 15 5 8 1012.4 - 0.0
22/06:30pm 33.8 30.1 4.5 16 15.5 SE 13 20 7 11 1012.1 - 0.0
22/06:00pm 34.7 31.0 4.3 15 16.1 SE 13 17 7 9 1012.0 1011.7 0.0
22/05:30pm 35.2 31.2 4.7 15 16.3 SE 15 24 8 13 1011.8 - 0.0
22/05:00pm 35.8 32.1 6.1 16 16.2 S 15 24 8 13 1011.6 - 0.0
22/04:30pm 36.1 31.8 7.2 17 16.1 S 19 30 10 16 1011.5 - 0.0
22/04:00pm 35.7 31.8 6.9 17 15.9 S 17 26 9 14 1011.5 - 0.0
22/03:30pm 36.7 32.6 8.5 18 16.1 S 20 35 11 19 1011.8 - 0.0
22/03:00pm 35.9 32.4 8.7 19 15.5 S 17 28 9 15 1012.0 1011.9 0.0
22/02:30pm 36.2 32.4 9.7 20 15.3 S 20 32 11 17 1012.5 - 0.0
22/02:00pm 34.7 30.0 9.2 21 14.6 S 24 35 13 19 1013.2 - 0.0
22/01:30pm 33.8 30.0 9.8 23 13.8 SE 20 28 11 15 1013.8 - 0.0
22/01:00pm 33.7 31.0 10.3 24 13.5 SSE 15 22 8 12 1014.5 - 0.0
22/12:30pm 33.1 30.4 10.4 25 13.1 E 15 32 8 17 1015.2 - 0.0
22/12:00pm 31.8 29.0 9.9 26 12.5 SE 15 19 8 10 1015.7 1015.7 0.0
22/11:30am 31.5 29.5 10.2 27 12.2 E 11 17 6 9 1016.1 - 0.0
22/11:00am 30.5 28.2 10.5 29 11.4 E 13 24 7 13 1016.5 - 0.0
22/10:30am 30.3 27.7 10.8 30 11.2 E 15 28 8 15 1017.1 - 0.0
22/10:00am 30.4 28.0 11.4 31 11.0 E 15 24 8 13 1017.4 - 0.0
22/09:30am 29.1 25.9 11.2 33 10.3 E 19 33 10 18 1017.7 - 0.0
22/09:00am 28.2 25.4 11.3 35 9.7 E 17 28 9 15 1017.8 1017.7 0.0
22/08:30am 27.5 24.6 11.1 36 9.3 ENE 17 26 9 14 1017.9 - 0.0
22/08:00am 26.8 23.7 11.7 39 8.6 ENE 19 32 10 17 1017.8 - 0.0
22/07:30am 25.5 23.7 12.0 43 7.7 ENE 13 22 7 12 1017.5 - 0.0
22/07:00am 24.0 23.1 12.6 49 6.5 E 9 13 5 7 1017.2 - 0.0
22/06:30am 22.2 21.7 12.7 55 5.4 E 7 11 4 6 1016.9 - 0.0
22/06:00am 21.5 21.3 13.7 61 4.5 ESE 7 13 4 7 1016.4 1016.1 0.0
22/05:30am 21.7 21.5 13.6 60 4.7 E 7 11 4 6 1016.0 - 0.0
22/05:00am 22.7 22.2 13.7 56 5.2 E 9 13 5 7 1015.6 - 0.0
22/04:30am 22.8 22.6 14.6 60 4.8 E 9 13 5 7 1015.2 - 0.0
22/04:00am 23.4 23.2 15.7 62 4.6 E 11 17 6 9 1014.9 - 0.0
22/03:30am 23.2 24.1 17.6 71 3.5 SE 9 13 5 7 1014.8 - 0.0
22/03:00am 22.7 24.4 18.5 77 2.6 ESE 7 13 4 7 1014.5 1014.3 0.0
22/02:30am 22.6 24.7 19.0 80 2.3 E 6 7 3 4 1014.4 - 0.0
22/02:00am 22.4 24.4 18.8 80 2.3 NNE 6 9 3 5 1014.3 - 0.0
22/01:30am 22.4 23.4 18.6 79 2.4 E 11 20 6 11 1014.7 - 0.0
22/01:00am 23.6 26.0 20.1 81 2.3 WNW 7 9 4 5 1014.0 - 0.0
22/12:30am 23.1 25.3 19.5 80 2.3 WSW 7 9 4 5 1014.2 - 0.0
22/12:00am 23.5 25.2 18.6 74 3.1 W 7 9 4 5 1014.5 1014.4 0.0
 
Date/Time
EST
Temp
°C
App
Temp
°C
Dew
Point
Rel
Hum
%
Delta-T
°C
Wind Press
QNH
hPa
Press
MSL
hPa
Rain
since 9 am
mm
Dir
 
Spd
km/h
Gust
km/h
Spd
kts
Gust
kts
21/11:30pm 23.4 24.4 17.8 71 3.5 W 9 13 5 7 1014.9 - 0.0
21/11:00pm 23.8 25.4 17.8 69 3.7 WNW 6 7 3 4 1015.2 - 0.0
21/10:30pm 24.2 25.4 17.4 65 4.2 WNW 7 9 4 5 1015.2 - 0.0
21/10:00pm 24.7 25.3 16.9 62 4.8 N 9 11 5 6 1015.4 - 0.0
21/09:30pm 25.6 25.7 16.4 56 5.7 N 11 15 6 8 1015.2 - 0.0
21/09:00pm 26.8 27.2 15.2 49 7.0 WNW 7 11 4 6 1014.7 1014.4 0.0
21/08:30pm 27.4 27.0 15.1 47 7.5 NW 11 15 6 8 1014.3 - 0.0
21/08:00pm 28.5 27.8 14.3 41 8.5 NW 11 13 6 7 1014.0 - 0.0
21/07:30pm 30.2 29.1 10.7 30 11.2 NNE 7 11 4 6 1013.6 - 0.0
21/07:00pm 32.1 29.3 3.1 16 14.8 SE 7 11 4 6 1013.2 - 0.0
21/06:30pm 33.9 30.6 2.7 14 16.0 SE 9 15 5 8 1012.8 - 0.0
21/06:00pm 35.2 31.0 3.7 14 16.5 SSE 15 19 8 10 1012.5 1012.2 0.0
21/05:30pm 36.0 30.8 3.3 13 17.1 S 20 28 11 15 1012.2 - 0.0
21/05:00pm 35.7 31.0 3.0 13 17.0 SE 17 26 9 14 1012.1 - 0.0
21/04:30pm 35.9 32.3 3.2 13 17.1 SE 11 24 6 13 1012.0 - 0.0
21/04:00pm 35.4 30.6 4.8 15 16.4 ESE 19 28 10 15 1012.2 - 0.0
21/03:30pm 36.0 30.6 4.3 14 16.9 SSE 22 28 12 15 1012.3 - 0.0
21/03:00pm 35.6 32.2 5.9 16 16.2 SE 13 26 7 14 1012.6 1012.4 0.0
21/02:30pm 35.4 31.6 7.5 18 15.6 S 17 28 9 15 1012.9 - 0.0
21/02:00pm 34.6 30.4 8.4 20 14.8 SSE 20 35 11 19 1013.5 - 0.0
21/01:30pm 34.2 30.9 9.4 22 14.2 SE 17 24 9 13 1014.2 - 0.0
21/01:00pm 33.7 30.4 9.7 23 13.7 SSE 17 32 9 17 1014.8 - 0.0
21/12:30pm 34.0 31.7 10.6 24 13.6 SSE 13 24 7 13 1015.5 - 0.0
21/12:00pm 32.7 30.5 10.7 26 12.7 E 13 32 7 17 1016.2 1016.2 0.0
21/11:30am 32.4 29.0 10.4 26 12.7 S 19 28 10 15 1016.8 - 0.0
21/11:00am 31.7 28.6 10.4 27 12.2 E 17 24 9 13 1017.1 - 0.0
21/10:30am 30.4 27.0 10.4 29 11.4 ENE 19 30 10 16 1017.5 - 0.0
21/10:00am 30.1 26.7 10.6 30 11.1 E 19 32 10 17 1017.8 - 0.0
21/09:30am 29.0 25.0 10.6 32 10.5 E 22 37 12 20 1018.0 - 0.0
21/09:00am 28.1 24.4 10.3 33 10.0 ENE 20 24 11 13 1018.1 1017.9 0.0
21/08:30am 27.3 23.9 10.5 35 9.5 E 19 28 10 15 1018.2 - 0.0
21/08:00am 26.4 22.9 10.1 36 9.1 E 19 26 10 14 1018.1 - 0.0
21/07:30am 25.7 22.9 9.9 37 8.7 E 15 20 8 11 1017.8 - 0.0
21/07:00am 25.1 23.0 9.8 38 8.4 E 11 20 6 11 1017.2 - 0.0
21/06:30am 24.4 21.5 9.6 39 8.1 E 15 20 8 11 1016.7 - 0.0
21/06:00am 24.7 21.6 9.0 37 8.5 E 15 26 8 14 1016.5 1016.2 0.0
21/05:30am 25.0 21.7 8.1 34 9.0 E 15 24 8 13 1016.1 - 0.0
21/05:00am 25.4 21.6 7.5 32 9.5 E 17 28 9 15 1015.3 - 0.0
21/04:30am 25.9 22.0 8.8 34 9.3 ENE 19 33 10 18 1015.0 - 0.0
21/04:00am 26.5 22.6 9.4 34 9.4 ENE 20 35 11 19 1014.6 - 0.0
21/03:30am 25.8 23.1 10.4 38 8.6 ENE 15 22 8 12 1014.1 - 0.0
21/03:00am 25.3 23.6 12.5 45 7.4 ENE 13 19 7 10 1014.0 1013.7 0.0
21/02:30am 24.5 24.0 13.7 51 6.3 ENE 9 13 5 7 1013.9 - 0.0
21/02:00am 24.4 24.2 14.8 55 5.7 ENE 9 13 5 7 1013.8 - 0.0
21/01:30am 25.2 25.2 15.2 54 6.0 NE 9 13 5 7 1014.0 - 0.0
21/01:00am 24.2 24.8 15.9 59 5.0 NNE 7 9 4 5 1014.2 - 0.0
21/12:30am 23.8 25.7 15.8 61 4.8 CALM 0 2 0 1 1014.3 - 0.0
21/12:00am 24.4 25.5 16.6 61 4.8 SW 6 9 3 5 1014.2 1014.2 0.0
 
Date/Time
EST
Temp
°C
App
Temp
°C
Dew
Point
Rel
Hum
%
Delta-T
°C
Wind Press
QNH
hPa
Press
MSL
hPa
Rain
since 9 am
mm
Dir
 
Spd
km/h
Gust
km/h
Spd
kts
Gust
kts
20/11:30pm 24.9 26.2 17.1 62 4.8 WSW 6 7 3 4 1014.7 - 0.0
20/11:00pm 25.5 26.8 17.2 60 5.2 W 6 7 3 4 1014.6 - 0.0
20/10:30pm 25.8 27.1 17.2 59 5.4 NW 6 7 3 4 1014.7 - 0.0
20/10:00pm 26.2 26.9 17.0 57 5.7 WNW 9 11 5 6 1014.4 - 0.0
20/09:30pm 26.8 27.2 16.4 53 6.4 NW 9 13 5 7 1014.2 - 0.0
20/09:00pm 27.5 26.9 13.4 41 8.3 NNW 9 20 5 11 1013.6 1013.3 0.0
20/08:30pm 30.2 28.3 9.1 27 11.8 S 9 11 5 6 1013.2 - 0.0
20/08:00pm 30.7 28.8 9.0 26 12.1 S 9 11 5 6 1012.9 - 0.0
20/07:30pm 31.8 29.8 8.7 24 12.9 SSE 9 13 5 7 1012.7 - 0.0
20/07:00pm 32.3 30.6 8.5 23 13.3 SE 7 13 4 7 1012.4 - 0.0
20/06:30pm 33.3 31.7 8.7 22 13.8 SE 7 11 4 6 1012.0 - 0.0

Other Formats:

Comma delimited format used in spreadsheet applications
http://www.bom.gov.au/fwo/IDQ60801/IDQ60801.94266.axf

JavaScript Object Notation format (JSON) in row-major order
http://www.bom.gov.au/fwo/IDQ60801/IDQ60801.94266.json